createdAt,value
2019-03-30T15:45:06.074Z,9.87
2019-03-30T15:47:35.320Z,12.50
2019-03-30T15:50:04.986Z,10.87
2019-03-30T15:52:34.217Z,10.97
2019-03-30T15:55:03.418Z,10.40
2019-03-30T15:57:32.633Z,11.17
2019-03-30T16:00:01.909Z,10.97
2019-03-30T16:02:31.117Z,11.00
2019-03-30T16:05:00.412Z,11.53
2019-03-30T16:07:29.709Z,11.37
2019-03-30T16:09:59.084Z,10.03
2019-03-30T16:12:28.506Z,9.73
2019-03-30T16:14:57.899Z,9.63
2019-03-30T16:17:27.110Z,10.03
2019-03-30T16:19:56.704Z,9.93
2019-03-30T16:22:25.956Z,9.33
2019-03-30T16:24:55.502Z,10.60
2019-03-30T16:27:29.207Z,11.23
2019-03-30T16:29:58.646Z,10.93
2019-03-30T16:32:27.096Z,11.83
2019-03-30T16:34:56.421Z,10.83
2019-03-30T16:37:25.768Z,10.03
2019-03-30T16:39:55.911Z,10.97
2019-03-30T16:42:25.254Z,12.10
2019-03-30T16:44:54.699Z,12.77
2019-03-30T16:47:24.192Z,11.63
2019-03-30T16:49:53.437Z,11.33
2019-03-30T16:52:23.265Z,11.33
2019-03-30T16:54:52.552Z,16.00
2019-03-30T16:57:21.724Z,14.60
2019-03-30T16:59:51.173Z,15.90
2019-03-30T17:02:20.562Z,15.17
2019-03-30T17:04:49.783Z,14.43
2019-03-30T17:07:19.200Z,14.77
2019-03-30T17:09:48.804Z,13.97
2019-03-30T17:12:18.287Z,14.20
2019-03-30T17:14:47.815Z,14.27
2019-03-30T17:17:17.277Z,12.93
2019-03-30T17:19:46.599Z,12.30
2019-03-30T17:22:16.417Z,12.23
2019-03-30T17:24:45.805Z,11.63
2019-03-30T17:27:15.124Z,11.13
2019-03-30T17:29:44.450Z,11.30
2019-03-30T17:32:13.789Z,10.83
2019-03-30T17:34:43.390Z,10.97
2019-03-30T17:37:14.418Z,10.40
2019-03-30T17:39:43.971Z,10.63
2019-03-30T17:42:13.348Z,9.07
2019-03-30T18:12:00.141Z,12.20
2019-03-30T18:14:29.656Z,13.40
2019-03-30T18:16:59.358Z,12.53
2019-03-30T18:19:28.902Z,12.27
2019-03-30T18:21:58.361Z,12.07
2019-03-30T18:24:27.922Z,12.87
2019-03-30T18:26:57.218Z,12.90
2019-03-30T18:29:27.006Z,13.37
2019-03-30T18:31:56.355Z,13.37
2019-03-30T18:34:26.280Z,15.50
2019-03-30T18:36:56.029Z,15.67
2019-03-30T18:39:25.625Z,14.50
2019-03-30T18:41:55.307Z,15.47
2019-03-30T18:44:24.833Z,16.43
2019-03-30T18:46:54.440Z,17.30
2019-03-30T18:49:23.991Z,17.87
2019-03-30T18:51:53.797Z,17.67
2019-03-30T18:54:24.300Z,17.83
2019-03-30T18:56:53.731Z,17.37
2019-03-30T20:15:33.386Z,122.30
2019-03-30T20:18:03.479Z,122.60
2019-03-30T20:20:33.621Z,116.67
2019-03-30T20:23:04.748Z,114.97
2019-03-30T20:25:34.787Z,112.77
2019-03-30T20:28:05.422Z,118.67
2019-03-30T20:30:37.161Z,111.37
2019-03-30T20:33:07.505Z,108.77
2019-03-30T20:35:37.791Z,88.30
2019-03-30T20:38:07.309Z,86.17
2019-03-30T20:40:39.800Z,79.13
2019-03-30T20:43:10.199Z,67.57
2019-03-30T20:45:40.535Z,66.03
2019-03-30T20:48:12.913Z,74.90
2019-03-30T20:50:43.447Z,76.63
2019-03-30T20:53:13.329Z,68.67
2019-03-30T20:55:45.117Z,55.57
2019-03-30T20:58:18.102Z,61.93
2019-03-30T21:00:50.831Z,55.10
2019-03-30T21:03:21.204Z,58.03
2019-03-30T21:05:50.745Z,56.63
2019-03-30T21:08:23.070Z,60.27
2019-03-30T21:10:52.760Z,76.77
2019-03-30T21:13:22.268Z,78.53
2019-03-30T21:15:52.808Z,85.30
2019-03-30T21:18:23.125Z,98.97
2019-03-30T21:20:52.883Z,88.77
2019-03-30T21:23:23.087Z,77.40
2019-03-30T21:25:53.718Z,69.17
2019-03-30T21:28:28.382Z,66.07
2019-03-30T21:30:58.447Z,56.40
2019-03-30T21:33:27.954Z,55.27
2019-03-30T21:35:57.849Z,56.40
2019-03-30T21:38:27.767Z,56.43
2019-03-30T21:40:57.686Z,57.93
2019-03-30T21:43:27.596Z,59.20
2019-03-30T21:45:57.529Z,56.97
2019-03-30T21:48:27.432Z,57.03
2019-03-30T21:50:57.346Z,55.33
2019-03-30T21:53:27.275Z,50.77
2019-03-30T21:55:56.974Z,52.13
2019-03-30T21:58:26.911Z,52.67
2019-03-30T22:01:00.076Z,54.40
2019-03-30T22:03:29.834Z,54.33
2019-03-30T22:06:01.168Z,54.57
2019-03-30T22:08:31.045Z,53.87
2019-03-30T22:11:03.376Z,54.20
2019-03-30T22:13:33.561Z,55.57
2019-03-30T22:16:03.480Z,55.23
2019-03-30T22:18:33.595Z,55.33
2019-03-30T22:21:03.522Z,57.67
2019-03-30T22:23:33.441Z,66.50
2019-03-30T22:26:03.577Z,72.17
2019-03-30T22:28:33.670Z,62.73
2019-03-30T22:31:05.166Z,78.33
2019-03-30T22:33:35.318Z,77.47
2019-03-30T22:36:05.228Z,87.53
2019-03-30T22:38:35.025Z,83.67
2019-03-30T22:41:05.077Z,84.50
2019-03-30T22:43:39.302Z,80.20
2019-03-30T22:46:12.677Z,76.93
2019-03-30T22:48:43.127Z,74.50
2019-03-30T22:51:14.193Z,90.93
2019-03-30T22:53:44.292Z,91.00
2019-03-30T22:56:14.218Z,189.70
2019-03-30T22:58:46.862Z,140.73
2019-03-30T23:01:19.197Z,122.53
2019-03-30T23:03:51.360Z,109.40
2019-03-30T23:06:21.075Z,102.27
2019-03-30T23:08:51.196Z,95.13
2019-03-30T23:11:21.280Z,89.10
2019-03-30T23:13:50.992Z,89.27
2019-03-30T23:16:21.360Z,102.63
2019-03-30T23:18:51.421Z,96.43
2019-03-30T23:21:23.192Z,89.53
2019-03-30T23:23:53.088Z,110.77
2019-03-30T23:26:23.233Z,113.47
2019-03-30T23:28:53.371Z,119.80
2019-03-30T23:31:23.117Z,143.27
2019-03-30T23:33:52.971Z,131.47
2019-03-30T23:36:25.345Z,124.37
2019-03-30T23:38:54.956Z,120.70
2019-03-30T23:41:24.951Z,126.37
2019-03-30T23:43:54.669Z,126.00
2019-03-30T23:46:24.976Z,135.53
2019-03-30T23:48:54.712Z,133.27
2019-03-30T23:51:24.822Z,159.73
2019-03-30T23:53:54.538Z,154.57
2019-03-30T23:56:26.156Z,190.77
2019-03-30T23:58:56.023Z,161.67
